OIFK

Details ICAO OIFK
Name KASHAN
Region Iran
Timezone Asia/Tehran (UTC+3.5)
Plans Departing 2
Arriving 0
Stats Elevation 3,465 ft / 1,056 m (AMSL)
Location 33.895331° 51.577043°
Runways 1
Magnetic Variation 4.242° E
Sunrise 2017-12-19 03:35:09 UTC / 2017-12-19 07:05:09 Local
Sunset 2017-12-19 13:28:58 UTC / 2017-12-19 16:58:58 Local
Advertisement - Login to hide

Runways

ID Width Length Bearing (true) Bearing (mag) Surface Threshold Offset Overrun Length
11 145 ft / 44 m 8,831 ft / 2,692 m 110.74° 106.50° Asphalt 0 ft / 0 m 0 ft / 0 m
29 145 ft / 44 m 8,831 ft / 2,692 m 290.76° 286.52° Asphalt 0 ft / 0 m 0 ft / 0 m

Map

Weather


0- 5 10 15 20 25 30 35+ Temperature / ° C

Clouds and Precipitation
Forecast for 2017-12-19 00:00 UTC. Updated an hour ago

Ground ~20,000 ft ~40,000 ft Winds

METAR

OIFK 182200Z 00000KT CAVOK 04/M08 Q1023

TAF

Not found

Frequencies

Tower 121.77 MHz TWR
Tower 118.17 MHz TWR
Warning: Do not use this data for real-world aviation or navigation. No guarantee of current accuracy is given.